createdAt,value
2023-09-30T00:00:05.285Z,15.76
2023-09-30T00:01:05.268Z,15.76
2023-09-30T00:02:05.202Z,15.75
2023-09-30T00:03:05.301Z,15.73
2023-09-30T00:04:05.330Z,15.72
2023-09-30T00:05:05.292Z,15.75
2023-09-30T00:06:05.212Z,15.73
2023-09-30T00:07:05.151Z,15.73
2023-09-30T00:08:05.129Z,15.76
2023-09-30T00:09:05.140Z,15.75
2023-09-30T00:10:05.119Z,15.76
2023-09-30T00:11:05.102Z,15.76
2023-09-30T00:12:05.119Z,15.75
2023-09-30T00:13:05.063Z,15.75
2023-09-30T00:14:05.045Z,15.76
2023-09-30T00:15:05.124Z,15.75
2023-09-30T00:16:05.027Z,15.72
2023-09-30T00:17:05.003Z,15.70
2023-09-30T00:18:05.056Z,15.72
2023-09-30T00:19:04.980Z,15.70
2023-09-30T00:20:04.997Z,15.67
2023-09-30T00:21:04.978Z,15.66
2023-09-30T00:22:04.945Z,15.65
2023-09-30T00:23:04.923Z,15.62
2023-09-30T00:24:04.990Z,15.60
2023-09-30T00:25:04.916Z,15.55
2023-09-30T00:26:04.893Z,15.52
2023-09-30T00:27:04.901Z,15.50
2023-09-30T00:28:04.865Z,15.48
2023-09-30T00:29:04.862Z,15.47
2023-09-30T00:30:04.867Z,15.45
2023-09-30T00:31:04.862Z,15.43
2023-09-30T00:32:04.810Z,15.43
2023-09-30T00:33:04.859Z,15.39
2023-09-30T00:34:04.794Z,15.39
2023-09-30T00:35:04.762Z,15.36
2023-09-30T00:36:04.786Z,15.33
2023-09-30T00:37:04.732Z,15.32
2023-09-30T00:38:04.731Z,15.29
2023-09-30T00:39:04.757Z,15.23
2023-09-30T00:40:04.702Z,15.19
2023-09-30T00:41:04.722Z,15.17
2023-09-30T00:42:04.774Z,15.12
2023-09-30T00:43:04.682Z,15.11
2023-09-30T00:44:04.671Z,15.04
2023-09-30T00:45:04.655Z,15.04
2023-09-30T00:46:04.665Z,15.00
2023-09-30T00:47:04.664Z,15.00
2023-09-30T00:48:04.690Z,14.97
2023-09-30T00:49:04.609Z,14.93
2023-09-30T00:50:04.564Z,14.90
2023-09-30T00:51:04.609Z,14.86
2023-09-30T00:52:04.541Z,14.81
2023-09-30T00:53:04.539Z,14.79
2023-09-30T00:54:04.624Z,14.78
2023-09-30T00:55:04.495Z,14.73
2023-09-30T00:56:04.484Z,14.71
2023-09-30T00:57:04.500Z,14.71
2023-09-30T00:58:04.490Z,14.71
2023-09-30T00:59:04.447Z,14.67
2023-09-30T01:00:04.510Z,14.67
2023-09-30T01:01:04.411Z,14.68
2023-09-30T01:02:04.461Z,14.68
2023-09-30T01:03:04.535Z,14.71
2023-09-30T01:04:04.621Z,14.71
2023-09-30T01:05:04.359Z,14.71
2023-09-30T01:06:04.487Z,14.70
2023-09-30T01:07:04.355Z,14.71
2023-09-30T01:08:04.323Z,14.70
2023-09-30T01:09:04.303Z,14.67
2023-09-30T01:10:04.297Z,14.63
2023-09-30T01:11:04.294Z,14.59
2023-09-30T01:12:04.280Z,14.56
2023-09-30T01:13:04.255Z,14.56
2023-09-30T01:14:04.261Z,14.52
2023-09-30T01:15:05.719Z,14.49
2023-09-30T01:16:04.304Z,14.48
2023-09-30T01:17:04.211Z,14.43
2023-09-30T01:18:04.238Z,14.41
2023-09-30T01:19:04.199Z,14.40
2023-09-30T01:20:04.171Z,14.40
2023-09-30T01:21:04.193Z,14.36
2023-09-30T01:22:04.154Z,14.34
2023-09-30T01:23:04.137Z,14.31
2023-09-30T01:24:04.124Z,14.30
2023-09-30T01:25:04.134Z,14.28
2023-09-30T01:26:04.113Z,14.25
2023-09-30T01:27:04.065Z,14.20
2023-09-30T01:28:04.055Z,14.20
2023-09-30T01:29:04.054Z,14.19
2023-09-30T01:30:04.056Z,14.18
2023-09-30T01:31:04.024Z,14.18
2023-09-30T01:32:04.009Z,14.19
2023-09-30T01:33:04.098Z,14.20
2023-09-30T01:34:03.975Z,14.22
2023-09-30T01:35:03.972Z,14.22
2023-09-30T01:36:03.961Z,14.26
2023-09-30T01:37:03.953Z,14.25
2023-09-30T01:38:03.955Z,14.25
2023-09-30T01:39:03.934Z,14.22
2023-09-30T01:40:03.895Z,14.20
2023-09-30T01:41:03.918Z,14.16
2023-09-30T01:42:03.923Z,14.13
2023-09-30T01:43:03.876Z,14.07
2023-09-30T01:44:03.855Z,14.04
2023-09-30T01:45:03.848Z,14.03
2023-09-30T01:46:03.858Z,13.97
2023-09-30T01:47:03.817Z,13.95
2023-09-30T01:48:03.840Z,13.95
2023-09-30T01:49:03.775Z,13.93
2023-09-30T01:50:03.756Z,13.93
2023-09-30T01:51:03.752Z,13.89
2023-09-30T01:52:03.732Z,13.86
2023-09-30T01:53:03.740Z,13.86
2023-09-30T01:54:03.749Z,13.83
2023-09-30T01:55:03.747Z,13.83
2023-09-30T01:56:03.692Z,13.79
2023-09-30T01:57:03.686Z,13.80
2023-09-30T01:58:03.675Z,13.83
2023-09-30T01:59:03.642Z,13.83
2023-09-30T02:00:03.639Z,13.82
2023-09-30T02:01:03.661Z,13.82
2023-09-30T02:02:03.624Z,13.80
2023-09-30T02:03:03.645Z,13.80
2023-09-30T02:04:03.624Z,13.79
2023-09-30T02:05:03.575Z,13.78
2023-09-30T02:06:03.561Z,13.78
2023-09-30T02:07:03.550Z,13.76
2023-09-30T02:08:03.524Z,13.75
2023-09-30T02:09:03.506Z,13.75
2023-09-30T02:10:03.511Z,13.76
2023-09-30T02:11:03.476Z,13.78
2023-09-30T02:12:03.521Z,13.78
2023-09-30T02:13:03.463Z,13.75
2023-09-30T02:14:03.449Z,13.76
2023-09-30T02:15:03.424Z,13.76
2023-09-30T02:16:03.563Z,13.80
2023-09-30T02:17:03.427Z,13.83
2023-09-30T02:18:03.427Z,13.86
2023-09-30T02:19:03.375Z,13.89
2023-09-30T02:20:03.364Z,13.93
2023-09-30T02:21:03.342Z,13.94
2023-09-30T02:22:03.345Z,13.95
2023-09-30T02:23:03.397Z,13.97
2023-09-30T02:24:03.303Z,14.00
2023-09-30T02:25:03.293Z,14.01
2023-09-30T02:26:03.292Z,14.04
2023-09-30T02:27:03.272Z,14.03
2023-09-30T02:28:03.250Z,14.03
2023-09-30T02:29:03.233Z,14.04
2023-09-30T02:30:03.228Z,14.03
2023-09-30T02:31:03.265Z,14.01
2023-09-30T02:32:03.210Z,14.00
2023-09-30T02:33:03.217Z,14.01
2023-09-30T02:34:03.199Z,14.00
2023-09-30T02:35:03.148Z,13.97
2023-09-30T02:36:03.157Z,13.95
2023-09-30T02:37:03.120Z,13.91
2023-09-30T02:38:03.115Z,13.91
2023-09-30T02:39:03.093Z,13.87
2023-09-30T02:40:03.085Z,13.85
2023-09-30T02:41:03.080Z,13.85
2023-09-30T02:42:03.075Z,13.83
2023-09-30T02:43:03.041Z,13.85
2023-09-30T02:44:03.033Z,13.83
2023-09-30T02:45:03.028Z,13.83
2023-09-30T02:46:03.226Z,13.82
2023-09-30T02:47:02.984Z,13.79
2023-09-30T02:48:03.031Z,13.73
2023-09-30T02:49:02.976Z,13.71
2023-09-30T02:50:02.968Z,13.68
2023-09-30T02:51:02.938Z,13.67
2023-09-30T02:52:02.927Z,13.67
2023-09-30T02:53:02.916Z,13.67
2023-09-30T02:54:02.903Z,13.67
2023-09-30T02:55:02.901Z,13.67
2023-09-30T02:56:02.881Z,13.67
2023-09-30T02:57:02.868Z,13.68
2023-09-30T02:58:02.861Z,13.68
2023-09-30T02:59:02.844Z,13.67
2023-09-30T03:00:02.864Z,13.64
2023-09-30T03:01:02.942Z,13.64
2023-09-30T03:02:02.842Z,13.62
2023-09-30T03:03:02.833Z,13.60
2023-09-30T03:04:02.808Z,13.57
2023-09-30T03:05:02.809Z,13.54
2023-09-30T03:06:02.746Z,13.50
2023-09-30T03:07:02.726Z,13.46
2023-09-30T03:08:02.711Z,13.42
2023-09-30T03:09:02.718Z,13.40
2023-09-30T03:10:02.687Z,13.37
2023-09-30T03:11:02.678Z,13.33
2023-09-30T03:12:02.665Z,13.31
2023-09-30T03:13:02.846Z,13.28
2023-09-30T03:14:02.648Z,13.28
2023-09-30T03:15:02.618Z,13.30
2023-09-30T03:16:02.634Z,13.28
2023-09-30T03:17:02.643Z,13.30
2023-09-30T03:18:02.644Z,13.31
2023-09-30T03:19:02.604Z,13.31
2023-09-30T03:20:02.553Z,13.33
2023-09-30T03:21:02.536Z,13.31
2023-09-30T03:22:02.529Z,13.36
2023-09-30T03:23:02.524Z,13.36
2023-09-30T03:24:02.492Z,13.31
2023-09-30T03:25:02.488Z,13.30
2023-09-30T03:26:02.471Z,13.27
2023-09-30T03:27:02.447Z,13.24
2023-09-30T03:28:02.457Z,13.19
2023-09-30T03:29:02.417Z,13.11
2023-09-30T03:30:02.455Z,13.08
2023-09-30T03:31:02.490Z,13.05
2023-09-30T03:32:02.384Z,13.02
2023-09-30T03:33:02.432Z,13.01
2023-09-30T03:34:02.349Z,12.98
2023-09-30T03:35:02.333Z,13.01
2023-09-30T03:36:02.326Z,13.01
2023-09-30T03:37:02.332Z,13.03
2023-09-30T03:38:02.318Z,13.05
2023-09-30T03:39:02.281Z,13.06
2023-09-30T03:40:02.269Z,13.06
2023-09-30T03:41:02.251Z,13.08
2023-09-30T03:42:02.284Z,13.08
2023-09-30T03:43:02.249Z,13.11
2023-09-30T03:44:02.217Z,13.09
2023-09-30T03:45:02.198Z,13.11
2023-09-30T03:46:02.190Z,13.11
2023-09-30T03:47:02.247Z,13.12
2023-09-30T03:48:02.183Z,13.12
2023-09-30T03:49:02.154Z,13.12
2023-09-30T03:50:02.145Z,13.13
2023-09-30T03:51:02.109Z,13.13
2023-09-30T03:52:02.112Z,13.11
2023-09-30T03:53:02.100Z,13.08
2023-09-30T03:54:02.075Z,13.08
2023-09-30T03:55:02.070Z,13.05
2023-09-30T03:56:02.057Z,13.02
2023-09-30T03:57:02.048Z,12.98
2023-09-30T03:58:02.054Z,12.94
2023-09-30T03:59:02.026Z,12.95
2023-09-30T04:00:01.999Z,12.95
2023-09-30T04:01:02.131Z,12.94
2023-09-30T04:02:01.969Z,12.95
2023-09-30T04:03:02.068Z,12.93
2023-09-30T04:04:02.279Z,12.87
2023-09-30T04:05:01.925Z,12.83
2023-09-30T04:06:01.918Z,12.76
2023-09-30T04:07:01.913Z,12.78
2023-09-30T04:08:02.084Z,12.72
2023-09-30T04:09:01.875Z,12.68
2023-09-30T04:10:01.861Z,12.63
2023-09-30T04:11:01.852Z,12.61
2023-09-30T04:12:01.857Z,12.61
2023-09-30T04:13:01.821Z,12.63
2023-09-30T04:14:01.813Z,12.63
2023-09-30T04:15:01.791Z,12.65
2023-09-30T04:16:01.809Z,12.65
2023-09-30T04:17:01.814Z,12.68
2023-09-30T04:18:01.822Z,12.68
2023-09-30T04:19:01.756Z,12.65
2023-09-30T04:20:01.777Z,12.63
2023-09-30T04:21:01.707Z,12.57
2023-09-30T04:22:01.716Z,12.54
2023-09-30T04:23:01.680Z,12.51
2023-09-30T04:24:01.677Z,12.51
2023-09-30T04:25:01.694Z,12.50
2023-09-30T04:26:01.666Z,12.53
2023-09-30T04:27:01.643Z,12.50
2023-09-30T04:28:01.621Z,12.47
2023-09-30T04:29:01.600Z,12.45
2023-09-30T04:30:01.592Z,12.44
2023-09-30T04:31:01.704Z,12.43
2023-09-30T04:32:01.664Z,12.45
2023-09-30T04:33:01.560Z,12.47
2023-09-30T04:34:01.559Z,12.50
2023-09-30T04:35:01.529Z,12.53
2023-09-30T04:36:01.530Z,12.55
2023-09-30T04:37:01.492Z,12.57
2023-09-30T04:38:01.491Z,12.58
2023-09-30T04:39:01.471Z,12.62
2023-09-30T04:40:01.494Z,12.63
2023-09-30T04:41:01.456Z,12.58
2023-09-30T04:42:01.430Z,12.55
2023-09-30T04:43:01.411Z,12.50
2023-09-30T04:44:01.403Z,12.45
2023-09-30T04:45:01.420Z,12.36
2023-09-30T04:46:01.384Z,12.32
2023-09-30T04:47:01.358Z,12.25
2023-09-30T04:48:01.364Z,12.23
2023-09-30T04:49:01.331Z,12.18
2023-09-30T04:50:01.332Z,12.17
2023-09-30T04:51:01.308Z,12.14
2023-09-30T04:52:01.305Z,12.11
2023-09-30T04:53:01.287Z,12.10
2023-09-30T04:54:01.285Z,12.05
2023-09-30T04:55:01.261Z,12.03
2023-09-30T04:56:01.248Z,12.02
2023-09-30T04:57:01.219Z,12.02
2023-09-30T04:58:01.218Z,12.00
2023-09-30T04:59:01.213Z,12.00
2023-09-30T05:00:01.216Z,12.02
2023-09-30T05:01:01.224Z,12.05
2023-09-30T05:02:01.162Z,12.05
2023-09-30T05:03:01.308Z,12.08
2023-09-30T05:04:01.504Z,12.10
2023-09-30T05:05:01.119Z,12.11
2023-09-30T05:06:01.116Z,12.12
2023-09-30T05:07:01.094Z,12.10
2023-09-30T05:08:01.094Z,12.11
2023-09-30T05:09:01.083Z,12.11
2023-09-30T05:10:03.863Z,12.11
2023-09-30T05:11:01.034Z,12.12
2023-09-30T05:12:01.029Z,12.11
2023-09-30T05:13:01.019Z,12.08
2023-09-30T05:14:01.000Z,12.05
2023-09-30T05:15:00.983Z,12.03
2023-09-30T05:16:01.060Z,12.02
2023-09-30T05:17:01.044Z,12.00
2023-09-30T05:18:00.988Z,11.99
2023-09-30T05:19:00.959Z,12.00
2023-09-30T05:20:00.914Z,12.00
2023-09-30T05:21:00.897Z,12.00
2023-09-30T05:22:00.887Z,12.02
2023-09-30T05:23:00.886Z,12.00
2023-09-30T05:24:00.899Z,12.00
2023-09-30T05:25:00.843Z,12.02
2023-09-30T05:26:00.836Z,12.03
2023-09-30T05:27:00.856Z,12.03
2023-09-30T05:28:00.823Z,12.07
2023-09-30T05:29:00.789Z,12.10
2023-09-30T05:30:00.783Z,12.10
2023-09-30T05:31:00.896Z,12.11
2023-09-30T05:32:00.768Z,12.07
2023-09-30T05:33:00.747Z,12.00
2023-09-30T05:34:01.435Z,11.96
2023-09-30T05:35:00.709Z,11.93
2023-09-30T05:36:00.703Z,11.89
2023-09-30T05:37:00.694Z,11.89
2023-09-30T05:38:00.675Z,11.85
2023-09-30T05:39:00.655Z,11.83
2023-09-30T05:40:00.650Z,11.77
2023-09-30T05:41:00.652Z,11.71
2023-09-30T05:42:00.638Z,11.71
2023-09-30T05:43:00.826Z,11.70
2023-09-30T05:44:00.591Z,11.71
2023-09-30T05:45:00.582Z,11.71
2023-09-30T05:46:02.296Z,11.70
2023-09-30T05:47:00.562Z,11.73
2023-09-30T05:48:00.604Z,11.71
2023-09-30T05:49:00.708Z,11.74
2023-09-30T05:50:00.509Z,11.77
2023-09-30T05:51:00.490Z,11.78
2023-09-30T05:52:00.500Z,11.81
2023-09-30T05:53:00.466Z,11.85
2023-09-30T05:54:03.199Z,11.86
2023-09-30T05:55:00.480Z,11.88
2023-09-30T05:56:02.104Z,11.89
2023-09-30T05:57:00.429Z,11.91
2023-09-30T05:58:00.409Z,11.96
2023-09-30T05:59:00.410Z,11.97
2023-09-30T06:00:00.380Z,11.97
2023-09-30T06:01:00.386Z,11.93
2023-09-30T06:02:00.382Z,11.89
2023-09-30T06:03:00.626Z,11.88
2023-09-30T06:04:00.511Z,11.86
2023-09-30T06:05:00.301Z,11.88
2023-09-30T06:06:00.306Z,11.89
2023-09-30T06:07:00.271Z,11.91
2023-09-30T06:08:00.254Z,11.95
2023-09-30T06:09:00.237Z,11.96
2023-09-30T06:10:00.260Z,11.97
2023-09-30T06:11:00.242Z,12.00
2023-09-30T06:12:00.206Z,12.00
2023-09-30T06:13:00.200Z,12.02
2023-09-30T06:14:00.279Z,12.00
2023-09-30T06:15:00.210Z,12.02
2023-09-30T06:16:00.351Z,12.00
2023-09-30T06:17:00.201Z,12.00
2023-09-30T06:18:00.193Z,11.99
2023-09-30T06:19:00.436Z,12.00
2023-09-30T06:20:00.149Z,11.99
2023-09-30T06:21:00.088Z,11.99
2023-09-30T06:22:00.076Z,12.05
2023-09-30T06:23:00.060Z,12.08
2023-09-30T06:24:00.056Z,12.12
2023-09-30T06:25:00.167Z,12.15
2023-09-30T06:26:00.013Z,12.21
2023-09-30T06:27:00.009Z,12.25
2023-09-30T06:27:59.995Z,12.28
2023-09-30T06:29:00.147Z,12.28
2023-09-30T06:29:59.981Z,12.26
2023-09-30T06:30:59.982Z,12.25
2023-09-30T06:31:59.935Z,12.26
2023-09-30T06:32:59.951Z,12.30
2023-09-30T06:33:59.963Z,12.32
2023-09-30T06:34:59.901Z,12.35
2023-09-30T06:35:59.881Z,12.35
2023-09-30T06:36:59.889Z,12.37
2023-09-30T06:37:59.864Z,12.37
2023-09-30T06:38:59.864Z,12.40
2023-09-30T06:39:59.829Z,12.45
2023-09-30T06:40:59.829Z,12.48
2023-09-30T06:41:59.803Z,12.47
2023-09-30T06:42:59.849Z,12.50
2023-09-30T06:43:59.788Z,12.51
2023-09-30T06:44:59.765Z,12.51
2023-09-30T06:45:59.834Z,12.47
2023-09-30T06:46:59.755Z,12.44
2023-09-30T06:47:59.740Z,12.36
2023-09-30T06:48:59.984Z,12.37
2023-09-30T06:49:59.694Z,12.39
2023-09-30T06:50:59.685Z,12.43
2023-09-30T06:51:59.676Z,12.45
2023-09-30T06:52:59.708Z,12.48
2023-09-30T06:53:59.670Z,12.53
2023-09-30T06:54:59.635Z,12.53
2023-09-30T06:55:59.612Z,12.55
2023-09-30T06:56:59.607Z,12.54
2023-09-30T06:57:59.669Z,12.48
2023-09-30T06:58:59.580Z,12.43
2023-09-30T06:59:59.569Z,12.39
2023-09-30T07:00:59.603Z,12.37
2023-09-30T07:01:59.583Z,12.37
2023-09-30T07:02:59.551Z,12.37
2023-09-30T07:03:59.617Z,12.39
2023-09-30T07:04:59.496Z,12.40
2023-09-30T07:05:59.481Z,12.39
2023-09-30T07:06:59.570Z,12.36
2023-09-30T07:07:59.464Z,12.33
2023-09-30T07:08:59.546Z,12.35
2023-09-30T07:09:59.433Z,12.39
2023-09-30T07:10:59.418Z,12.39
2023-09-30T07:11:59.414Z,12.37
2023-09-30T07:12:59.517Z,12.39
2023-09-30T07:13:59.383Z,12.43
2023-09-30T07:14:59.374Z,12.47
2023-09-30T07:15:59.427Z,12.47
2023-09-30T07:16:59.351Z,12.51
2023-09-30T07:17:59.373Z,12.55
2023-09-30T07:18:59.472Z,12.58
2023-09-30T07:19:59.290Z,12.57
2023-09-30T07:20:59.296Z,12.57
2023-09-30T07:22:04.861Z,12.63
2023-09-30T07:23:15.762Z,12.69
2023-09-30T07:24:00.231Z,12.68
2023-09-30T07:24:59.271Z,12.65
2023-09-30T07:25:59.289Z,12.62
2023-09-30T07:26:59.202Z,12.63
2023-09-30T07:27:59.236Z,12.66
2023-09-30T07:28:59.333Z,12.72
2023-09-30T07:29:59.160Z,12.73
2023-09-30T07:30:59.215Z,12.78
2023-09-30T07:31:59.168Z,12.84
2023-09-30T07:32:59.192Z,12.99
2023-09-30T07:33:59.203Z,13.05
2023-09-30T07:34:59.113Z,13.12
2023-09-30T07:35:59.112Z,13.20
2023-09-30T07:36:59.090Z,13.27
2023-09-30T07:37:59.047Z,13.33
2023-09-30T07:38:59.113Z,13.39
2023-09-30T07:39:59.096Z,13.43
2023-09-30T07:40:59.007Z,13.50
2023-09-30T07:41:58.997Z,13.58
2023-09-30T07:42:59.068Z,13.62
2023-09-30T07:43:58.976Z,13.65
2023-09-30T07:44:59.044Z,13.65
2023-09-30T07:46:00.195Z,13.65
2023-09-30T07:46:58.959Z,13.70
2023-09-30T07:47:58.969Z,13.73
2023-09-30T07:48:59.135Z,13.80
2023-09-30T07:49:58.907Z,13.83
2023-09-30T07:50:58.890Z,13.80
2023-09-30T07:51:58.885Z,13.83
2023-09-30T07:52:58.845Z,13.89
2023-09-30T07:54:10.899Z,13.95
2023-09-30T07:54:59.885Z,14.00
2023-09-30T07:55:58.805Z,14.01
2023-09-30T07:56:58.826Z,14.05
2023-09-30T07:57:58.844Z,14.03
2023-09-30T07:58:58.900Z,14.08
2023-09-30T07:59:58.794Z,14.13
2023-09-30T08:00:58.817Z,14.22
2023-09-30T08:01:58.796Z,14.20
2023-09-30T08:02:58.769Z,14.19
2023-09-30T08:03:58.828Z,14.16
2023-09-30T08:04:58.685Z,14.11
2023-09-30T08:05:58.657Z,14.15
2023-09-30T08:06:58.669Z,14.12
2023-09-30T08:07:58.681Z,14.20
2023-09-30T08:08:58.842Z,14.33
2023-09-30T08:09:58.667Z,14.48
2023-09-30T08:10:58.601Z,14.67
2023-09-30T08:11:58.586Z,14.86
2023-09-30T08:12:58.710Z,14.78
2023-09-30T08:13:58.558Z,14.68
2023-09-30T08:14:58.571Z,14.61
2023-09-30T08:15:58.582Z,14.58
2023-09-30T08:16:58.553Z,14.49
2023-09-30T08:17:58.595Z,14.37
2023-09-30T08:18:58.710Z,14.28
2023-09-30T08:19:58.500Z,14.25
2023-09-30T08:20:58.502Z,14.28
2023-09-30T08:21:58.571Z,14.25
2023-09-30T08:22:58.470Z,14.20
2023-09-30T08:23:58.431Z,14.26
2023-09-30T08:24:58.466Z,14.28
2023-09-30T08:25:58.421Z,14.37
2023-09-30T08:26:58.406Z,14.44
2023-09-30T08:27:58.418Z,14.55
2023-09-30T08:28:58.518Z,14.62
2023-09-30T08:29:58.339Z,14.73
2023-09-30T08:30:58.355Z,14.87
2023-09-30T08:31:58.350Z,15.00
2023-09-30T08:32:58.325Z,15.10
2023-09-30T08:33:58.346Z,15.11
2023-09-30T08:34:58.280Z,15.07
2023-09-30T08:35:58.282Z,14.93
2023-09-30T08:36:58.338Z,14.78
2023-09-30T08:37:58.240Z,14.61
2023-09-30T08:38:58.365Z,14.48
2023-09-30T08:39:58.299Z,14.43
2023-09-30T08:40:58.227Z,14.40
2023-09-30T08:41:58.196Z,14.38
2023-09-30T08:42:58.285Z,14.41
2023-09-30T08:43:58.157Z,14.41
2023-09-30T08:44:58.144Z,14.40
2023-09-30T08:45:58.222Z,14.37
2023-09-30T08:46:58.155Z,14.34
2023-09-30T08:47:58.106Z,14.26
2023-09-30T08:48:58.266Z,14.15
2023-09-30T08:49:58.077Z,14.08
2023-09-30T08:50:58.093Z,14.05
2023-09-30T08:51:58.093Z,14.08
2023-09-30T08:52:58.047Z,14.04
2023-09-30T08:53:58.014Z,13.98
2023-09-30T08:54:58.059Z,13.94
2023-09-30T08:55:58.011Z,13.97
2023-09-30T08:56:57.982Z,14.12
2023-09-30T08:57:59.819Z,14.28
2023-09-30T08:58:58.119Z,14.36
2023-09-30T08:59:57.947Z,14.38
2023-09-30T09:00:58.079Z,14.44
2023-09-30T09:01:57.917Z,14.43
2023-09-30T09:02:57.982Z,14.48
2023-09-30T09:03:58.005Z,14.51
2023-09-30T09:04:57.898Z,14.52
2023-09-30T09:05:57.884Z,14.56
2023-09-30T09:06:57.898Z,14.51
2023-09-30T09:07:57.834Z,14.45
2023-09-30T09:08:58.009Z,14.41
2023-09-30T09:09:57.897Z,14.44
2023-09-30T09:10:57.798Z,14.51
2023-09-30T09:11:57.800Z,14.56
2023-09-30T09:12:57.864Z,14.62
2023-09-30T09:13:57.750Z,14.68
2023-09-30T09:14:57.787Z,14.78
2023-09-30T09:15:57.879Z,14.70
2023-09-30T09:16:57.822Z,14.58
2023-09-30T09:17:57.745Z,14.53
2023-09-30T09:18:57.932Z,14.53
2023-09-30T09:19:57.688Z,14.55
2023-09-30T09:20:57.697Z,14.56
2023-09-30T09:21:57.716Z,14.58
2023-09-30T09:22:57.650Z,14.58
2023-09-30T09:23:57.646Z,14.56
2023-09-30T09:24:57.613Z,14.53
2023-09-30T09:25:58.637Z,14.51
2023-09-30T09:26:57.581Z,14.53
2023-09-30T09:27:57.629Z,14.61
2023-09-30T09:28:57.839Z,14.73
2023-09-30T09:29:57.558Z,14.87
2023-09-30T09:30:57.642Z,14.92
2023-09-30T09:31:57.573Z,14.99
2023-09-30T09:32:57.565Z,15.11
2023-09-30T09:33:57.553Z,15.25
2023-09-30T09:34:57.466Z,15.39
2023-09-30T09:35:57.441Z,15.55
2023-09-30T09:36:57.465Z,15.63
2023-09-30T09:37:57.430Z,15.73
2023-09-30T09:38:57.604Z,15.83
2023-09-30T09:39:57.429Z,15.91
2023-09-30T09:40:57.377Z,15.98
2023-09-30T09:41:57.360Z,16.03
2023-09-30T09:42:57.430Z,16.12
2023-09-30T09:43:57.336Z,16.24
2023-09-30T09:44:57.341Z,16.29
2023-09-30T09:45:57.365Z,16.36
2023-09-30T09:46:57.322Z,16.41
2023-09-30T09:47:57.318Z,16.41
2023-09-30T09:48:57.586Z,16.46
2023-09-30T09:49:57.265Z,16.51
2023-09-30T09:50:57.251Z,16.62
2023-09-30T09:51:57.280Z,16.69
2023-09-30T09:52:57.269Z,16.68
2023-09-30T09:53:57.199Z,16.76
2023-09-30T09:54:57.203Z,16.83
2023-09-30T09:55:57.193Z,16.89
2023-09-30T09:56:57.164Z,16.95
2023-09-30T09:57:57.319Z,17.01
2023-09-30T09:58:57.381Z,17.02
2023-09-30T09:59:59.238Z,17.04
2023-09-30T10:00:57.228Z,17.09
2023-09-30T10:01:57.147Z,17.07
2023-09-30T10:02:57.215Z,17.09
2023-09-30T10:03:57.137Z,17.09
2023-09-30T10:04:57.061Z,17.10
2023-09-30T10:05:57.044Z,17.09
2023-09-30T10:06:57.124Z,17.10
2023-09-30T10:07:57.035Z,17.14
2023-09-30T10:08:57.197Z,17.20
2023-09-30T10:09:57.089Z,17.28
2023-09-30T10:10:57.105Z,17.34
2023-09-30T10:11:56.977Z,17.37
2023-09-30T10:12:57.028Z,17.42
2023-09-30T10:13:56.943Z,17.47
2023-09-30T10:14:56.928Z,17.50
2023-09-30T10:15:56.976Z,17.52
2023-09-30T10:16:56.940Z,17.54
2023-09-30T10:17:56.973Z,17.56
2023-09-30T10:18:57.136Z,17.54
2023-09-30T10:19:56.854Z,17.57
2023-09-30T10:20:56.860Z,17.50
2023-09-30T10:21:56.848Z,17.49
2023-09-30T10:22:56.819Z,17.49
2023-09-30T10:23:56.799Z,17.52
2023-09-30T10:24:56.833Z,17.53
2023-09-30T10:25:56.797Z,17.56
2023-09-30T10:26:56.778Z,17.56
2023-09-30T10:27:56.810Z,17.59
2023-09-30T10:28:56.940Z,17.65
2023-09-30T10:29:56.725Z,17.71
2023-09-30T10:30:56.802Z,17.78
2023-09-30T10:31:56.771Z,17.82
2023-09-30T10:32:56.721Z,17.87
2023-09-30T10:33:56.707Z,17.90
2023-09-30T10:34:56.668Z,17.86
2023-09-30T10:35:56.719Z,17.86
2023-09-30T10:36:56.697Z,17.87
2023-09-30T10:37:56.624Z,17.91
2023-09-30T10:38:56.876Z,17.97
2023-09-30T10:39:56.757Z,18.02
2023-09-30T10:40:56.578Z,18.09
2023-09-30T10:41:56.569Z,18.15
2023-09-30T10:42:56.593Z,18.21
2023-09-30T10:43:56.578Z,18.27
2023-09-30T10:44:56.545Z,18.36
2023-09-30T10:45:56.725Z,18.41
2023-09-30T10:46:56.620Z,18.43
2023-09-30T10:47:56.538Z,18.45
2023-09-30T10:48:56.684Z,18.45
2023-09-30T10:49:56.504Z,18.46
2023-09-30T10:50:56.481Z,18.51
2023-09-30T10:51:56.503Z,18.53
2023-09-30T10:52:56.425Z,18.58
2023-09-30T10:53:56.460Z,18.58
2023-09-30T10:54:56.428Z,18.60
2023-09-30T10:55:56.439Z,18.60
2023-09-30T10:56:56.368Z,18.60
2023-09-30T10:57:56.419Z,18.61
2023-09-30T10:58:56.645Z,18.63
2023-09-30T10:59:56.364Z,18.63
2023-09-30T11:00:56.553Z,18.63
2023-09-30T11:01:56.459Z,18.64
2023-09-30T11:02:56.812Z,18.67
2023-09-30T11:03:56.436Z,18.66
2023-09-30T11:04:56.500Z,18.67
2023-09-30T11:06:11.889Z,18.70
2023-09-30T11:06:57.266Z,18.71
2023-09-30T11:07:56.229Z,18.71
2023-09-30T11:08:56.404Z,18.71
2023-09-30T11:09:56.209Z,18.63
2023-09-30T11:10:56.173Z,18.58
2023-09-30T11:11:56.183Z,18.53
2023-09-30T11:12:56.150Z,18.53
2023-09-30T11:13:56.148Z,18.48
2023-09-30T11:14:56.113Z,18.48
2023-09-30T11:15:56.152Z,18.45
2023-09-30T11:16:56.243Z,18.45
2023-09-30T11:17:56.093Z,18.41
2023-09-30T11:18:56.391Z,18.43
2023-09-30T11:19:56.091Z,18.49
2023-09-30T11:20:56.046Z,18.53
2023-09-30T11:21:56.224Z,18.57
2023-09-30T11:22:56.030Z,18.61
2023-09-30T11:23:56.052Z,18.55
2023-09-30T11:24:56.041Z,18.52
2023-09-30T11:25:55.975Z,18.46
2023-09-30T11:26:55.989Z,18.51
2023-09-30T11:27:56.007Z,18.61
2023-09-30T11:28:56.135Z,18.70
2023-09-30T11:29:55.923Z,18.67
2023-09-30T11:30:56.053Z,18.70
2023-09-30T11:31:55.980Z,18.74
2023-09-30T11:32:55.966Z,18.74
2023-09-30T11:33:55.886Z,18.76
2023-09-30T11:34:55.853Z,18.71
2023-09-30T11:35:55.846Z,18.68
2023-09-30T11:36:55.852Z,18.68
2023-09-30T11:37:55.841Z,18.70
2023-09-30T11:38:55.858Z,18.52
2023-09-30T11:39:55.790Z,18.46
2023-09-30T11:40:55.753Z,18.43
2023-09-30T11:41:55.763Z,18.51
2023-09-30T11:42:55.746Z,18.55
2023-09-30T11:43:55.721Z,18.55
2023-09-30T11:44:55.708Z,18.58
2023-09-30T11:45:55.736Z,18.60
2023-09-30T11:46:55.782Z,18.66
2023-09-30T11:47:55.694Z,18.70
2023-09-30T11:48:55.842Z,18.82
2023-09-30T11:49:55.689Z,18.89
2023-09-30T11:50:55.630Z,18.91
2023-09-30T11:51:55.671Z,18.94
2023-09-30T11:52:55.595Z,19.00
2023-09-30T11:53:55.599Z,19.04
2023-09-30T11:54:55.665Z,19.08
2023-09-30T11:55:55.576Z,19.15
2023-09-30T11:56:55.549Z,19.17
2023-09-30T11:57:55.675Z,19.22
2023-09-30T11:58:55.513Z,19.24
2023-09-30T11:59:55.515Z,19.23
2023-09-30T12:00:55.629Z,19.26
2023-09-30T12:02:10.727Z,19.19
2023-09-30T12:02:56.472Z,19.12
2023-09-30T12:03:57.876Z,19.05
2023-09-30T12:04:55.449Z,19.05
2023-09-30T12:05:55.432Z,19.04
2023-09-30T12:06:55.416Z,19.04
2023-09-30T12:07:55.417Z,19.01
2023-09-30T12:08:55.378Z,19.05
2023-09-30T12:09:55.371Z,19.08
2023-09-30T12:10:55.358Z,19.04
2023-09-30T12:11:55.392Z,19.04
2023-09-30T12:12:55.384Z,19.07
2023-09-30T12:13:55.304Z,19.09
2023-09-30T12:14:55.287Z,19.15
2023-09-30T12:15:55.333Z,19.17
2023-09-30T12:16:55.388Z,19.15
2023-09-30T12:17:55.337Z,19.15
2023-09-30T12:18:55.250Z,19.11
2023-09-30T12:19:55.256Z,19.16
2023-09-30T12:20:55.214Z,19.19
2023-09-30T12:21:55.199Z,19.22
2023-09-30T12:22:55.188Z,19.19
2023-09-30T12:23:55.163Z,19.17
2023-09-30T12:24:55.220Z,19.20
2023-09-30T12:26:06.458Z,19.17
2023-09-30T12:26:56.223Z,19.09
2023-09-30T12:27:55.212Z,19.07
2023-09-30T12:28:55.100Z,19.08
2023-09-30T12:29:55.125Z,18.97
2023-09-30T12:30:55.141Z,18.88
2023-09-30T12:31:56.096Z,18.76
2023-09-30T12:32:55.083Z,18.71
2023-09-30T12:33:55.163Z,18.67
2023-09-30T12:34:55.031Z,18.63
2023-09-30T12:35:55.013Z,18.52
2023-09-30T12:36:55.052Z,18.43
2023-09-30T12:37:54.987Z,18.36
2023-09-30T12:38:54.965Z,18.28
2023-09-30T12:39:54.993Z,18.23
2023-09-30T12:40:54.952Z,18.21
2023-09-30T12:41:54.994Z,18.18
2023-09-30T12:42:55.002Z,18.15
2023-09-30T12:43:54.910Z,18.11
2023-09-30T12:44:54.897Z,18.06
2023-09-30T12:45:55.007Z,18.02
2023-09-30T12:46:54.913Z,18.02
2023-09-30T12:47:54.842Z,18.00
2023-09-30T12:48:54.900Z,17.98
2023-09-30T12:49:54.814Z,17.98
2023-09-30T12:50:54.802Z,18.06
2023-09-30T12:51:54.834Z,18.18